Time;durP1;ratioP1;P1;durP2;ratioP2;P2;SDS_P1;SDS_P2;PMS_P1;PMS_P2;Temp;Humidity;BMP_temperature;BMP_pressure;BME280_temperature;BME280_humidity;BME280_pressure;Samples;Min_cycle;Max_cycle;Signal;HPM_P1;HPM_P2
2022/08/04 00:01:44;;;;;;;6.45;5.65;;;28.90;91.30;;;;;;5026332;28;20459;-71
2022/08/04 00:04:13;;;;;;;8.20;5.88;;;28.80;91.30;;;;;;5016917;28;20053;-72
2022/08/04 00:06:58;;;;;;;8.65;6.13;;;28.80;91.40;;;;;;5052205;28;20064;-69
2022/08/04 00:09:54;;;;;;;12.02;6.40;;;28.80;91.50;;;;;;5049402;28;20053;-77
2022/08/04 00:12:25;;;;;;;6.97;6.28;;;28.80;91.50;;;;;;5030248;28;20043;-69
2022/08/04 00:14:56;;;;;;;14.50;6.40;;;28.80;91.50;;;;;;5051453;28;20494;-70
2022/08/04 00:17:30;;;;;;;11.13;6.20;;;28.70;91.40;;;;;;5048473;28;20033;-70
2022/08/04 00:20:02;;;;;;;7.47;6.03;;;28.80;91.50;;;;;;5018912;28;20053;-75
2022/08/04 00:22:31;;;;;;;8.25;5.80;;;28.80;91.50;;;;;;5032087;28;20052;-75
2022/08/04 00:25:02;;;;;;;8.60;5.75;;;28.80;91.40;;;;;;5056804;28;20060;-69
2022/08/04 00:27:31;;;;;;;11.90;5.95;;;28.80;91.40;;;;;;5066841;28;20581;-70
2022/08/04 00:29:59;;;;;;;6.63;4.97;;;28.70;91.40;;;;;;5041122;28;20071;-73
2022/08/04 00:32:27;;;;;;;7.05;5.75;;;28.70;91.40;;;;;;5064082;28;20090;-70
2022/08/04 00:34:56;;;;;;;6.90;6.07;;;28.70;91.30;;;;;;5056412;28;20468;-71
2022/08/04 00:37:25;;;;;;;9.02;5.47;;;28.70;91.20;;;;;;5032015;28;20069;-72
2022/08/04 00:39:55;;;;;;;8.65;5.68;;;28.60;91.30;;;;;;5062599;28;20399;-71
2022/08/04 00:42:53;;;;;;;8.45;5.85;;;28.60;91.30;;;;;;5066369;28;20445;-70
2022/08/04 00:45:51;;;;;;;6.70;5.45;;;28.50;91.60;;;;;;5052584;28;20048;-71
2022/08/04 00:48:40;;;;;;;7.38;4.78;;;28.50;91.70;;;;;;5070441;28;20056;-70
2022/08/04 00:51:11;;;;;;;8.25;5.20;;;28.50;91.80;;;;;;5070535;28;20047;-72
2022/08/04 00:53:57;;;;;;;6.18;5.18;;;28.40;91.90;;;;;;5047410;28;20520;-71
2022/08/04 00:56:54;;;;;;;;;;;28.40;92.00;;;;;;5069025;28;20044;-74
2022/08/04 00:59:30;;;;;;;9.77;5.20;;;28.30;92.10;;;;;;5054750;28;19924;-70
2022/08/04 01:02:20;;;;;;;5.57;4.97;;;28.30;91.90;;;;;;5037963;28;20372;-72
2022/08/04 01:05:02;;;;;;;6.97;5.47;;;28.30;92.20;;;;;;5052328;28;20135;-71
2022/08/04 01:07:52;;;;;;;6.43;5.13;;;28.30;92.20;;;;;;5041731;28;20074;-71
2022/08/04 01:10:29;;;;;;;11.57;5.93;;;28.30;92.20;;;;;;5059597;28;20503;-72
2022/08/04 01:13:19;;;;;;;6.00;5.32;;;28.30;92.30;;;;;;5066371;28;20044;-74
2022/08/04 01:16:06;;;;;;;8.75;5.43;;;28.20;92.10;;;;;;5049317;28;20064;-74
2022/08/04 01:18:59;;;;;;;8.63;4.93;;;28.20;92.10;;;;;;5063891;28;20044;-70
2022/08/04 01:22:07;;;;;;;7.68;4.72;;;28.30;91.90;;;;;;5068029;28;20111;-71
2022/08/04 01:25:11;;;;;;;6.68;5.15;;;28.30;91.90;;;;;;5041167;28;20058;-71
2022/08/04 01:27:50;;;;;;;5.88;4.88;;;28.30;92.10;;;;;;5047550;28;20045;-73
2022/08/04 01:30:18;;;;;;;5.60;4.63;;;28.30;92.00;;;;;;5031512;28;20114;-71
2022/08/04 01:32:51;;;;;;;8.00;4.65;;;28.20;91.90;;;;;;5043863;28;20051;-71
2022/08/04 01:35:32;;;;;;;6.22;4.80;;;28.20;91.90;;;;;;5029527;28;20059;-71
2022/08/04 01:38:11;;;;;;;6.70;5.20;;;28.20;91.80;;;;;;5032494;28;20115;-71
2022/08/04 01:40:41;;;;;;;5.60;4.82;;;28.20;91.90;;;;;;5031712;28;20042;-71
2022/08/04 01:43:12;;;;;;;5.72;4.70;;;28.20;91.90;;;;;;5023823;28;20107;-73
2022/08/04 01:45:40;;;;;;;5.78;4.90;;;28.20;91.80;;;;;;5042074;28;20041;-71
2022/08/04 01:48:11;;;;;;;6.72;4.47;;;28.20;91.90;;;;;;5031404;28;20140;-71
2022/08/04 01:50:42;;;;;;;5.88;4.78;;;28.20;91.70;;;;;;5037366;28;20041;-70
2022/08/04 01:53:10;;;;;;;5.97;4.07;;;28.20;92.00;;;;;;5021095;28;20049;-72
2022/08/04 01:55:39;;;;;;;6.82;4.57;;;28.20;92.00;;;;;;5019313;28;20049;-72
2022/08/04 01:58:08;;;;;;;8.57;4.55;;;28.20;92.20;;;;;;5044616;28;20052;-71
2022/08/04 02:00:41;;;;;;;7.18;4.88;;;28.20;92.30;;;;;;5045382;28;20068;-72
2022/08/04 02:03:10;;;;;;;6.80;4.38;;;28.20;92.40;;;;;;5029970;28;20044;-72
2022/08/04 02:05:40;;;;;;;8.13;5.55;;;28.20;92.30;;;;;;5011401;28;20625;-71
2022/08/04 02:08:28;;;;;;;5.95;4.43;;;28.20;92.40;;;;;;5028030;28;20041;-73
2022/08/04 02:11:15;;;;;;;5.43;4.28;;;28.20;92.50;;;;;;5028115;28;20529;-72
2022/08/04 02:13:46;;;;;;;7.97;4.72;;;28.20;92.50;;;;;;5028326;28;20045;-71
2022/08/04 02:16:35;;;;;;;6.45;3.97;;;28.10;92.60;;;;;;5011985;28;20488;-73
2022/08/04 02:19:38;;;;;;;6.10;4.15;;;28.10;92.60;;;;;;5028358;28;20103;-71
2022/08/04 02:22:14;;;;;;;5.22;4.72;;;28.10;92.70;;;;;;5030064;28;20042;-71
2022/08/04 02:24:55;;;;;;;5.43;3.92;;;28.10;92.70;;;;;;5049211;28;20060;-71
2022/08/04 02:27:28;;;;;;;5.63;4.13;;;28.10;92.70;;;;;;5050391;28;20550;-71
2022/08/04 02:30:02;;;;;;;4.95;4.05;;;28.10;92.80;;;;;;5049313;28;20049;-71
2022/08/04 02:32:38;;;;;;;5.22;4.13;;;28.10;92.80;;;;;;5050725;28;20066;-74
2022/08/04 02:35:11;;;;;;;4.97;3.55;;;28.10;92.80;;;;;;5065946;28;20430;-70
2022/08/04 02:37:48;;;;;;;4.90;3.97;;;28.10;92.80;;;;;;5016025;28;20041;-70
2022/08/04 02:40:20;;;;;;;4.65;4.07;;;28.10;92.90;;;;;;5032756;28;20099;-70
2022/08/04 02:42:49;;;;;;;4.95;3.95;;;28.10;92.90;;;;;;5032974;28;20053;-70
2022/08/04 02:45:19;;;;;;;6.43;3.67;;;28.10;92.90;;;;;;5049266;28;20103;-71
2022/08/04 02:47:48;;;;;;;5.97;3.95;;;28.10;92.90;;;;;;5050709;28;20045;-71
2022/08/04 02:50:18;;;;;;;5.13;4.50;;;28.10;92.90;;;;;;5065945;28;20045;-71
2022/08/04 02:52:49;;;;;;;5.15;3.58;;;28.10;92.90;;;;;;5050436;28;20044;-71
2022/08/04 02:55:18;;;;;;;5.80;4.10;;;28.10;93.00;;;;;;5032675;28;20053;-76
2022/08/04 02:57:49;;;;;;;5.50;4.30;;;28.10;93.00;;;;;;5049344;28;20163;-77
2022/08/04 03:00:18;;;;;;;4.35;3.80;;;28.00;93.00;;;;;;5032301;28;20056;-73
2022/08/04 03:02:58;;;;;;;5.20;3.58;;;28.00;93.00;;;;;;5032498;28;20045;-74
2022/08/04 03:05:39;;;;;;;4.82;3.90;;;28.00;93.10;;;;;;5016666;28;20057;-70
2022/08/04 03:08:20;;;;;;;5.32;4.20;;;28.00;93.10;;;;;;5049027;28;20187;-70
2022/08/04 03:11:50;;;;;;;4.78;3.90;;;28.00;93.20;;;;;;5065849;28;20049;-70
2022/08/04 03:14:55;;;;;;;5.70;4.43;;;28.00;93.20;;;;;;4959786;28;20057;-71
2022/08/04 03:17:35;;;;;;;5.70;4.05;;;28.00;93.30;;;;;;5048694;28;20103;-70
2022/08/04 03:20:14;;;;;;;4.32;3.83;;;28.00;93.30;;;;;;5048792;28;20095;-70
2022/08/04 03:23:00;;;;;;;4.90;3.63;;;28.00;93.30;;;;;;5048842;28;20041;-71
2022/08/04 03:26:09;;;;;;;5.10;3.63;;;27.90;93.30;;;;;;5017578;28;20056;-70
2022/08/04 03:29:12;;;;;;;5.65;4.00;;;27.90;93.40;;;;;;5048864;28;20048;-71
2022/08/04 03:32:04;;;;;;;5.07;3.38;;;27.90;93.40;;;;;;5032231;28;20080;-71
2022/08/04 03:34:50;;;;;;;4.30;3.20;;;27.90;93.50;;;;;;5049016;28;20506;-71
2022/08/04 03:37:23;;;;;;;5.05;3.78;;;27.90;93.60;;;;;;5032634;28;20107;-70
2022/08/04 03:40:01;;;;;;;5.28;3.78;;;27.90;93.70;;;;;;5050786;28;20045;-71
2022/08/04 03:43:17;;;;;;;4.65;3.47;;;27.90;93.70;;;;;;5052727;28;20048;-71
2022/08/04 03:46:08;;;;;;;4.45;3.45;;;27.80;93.80;;;;;;5050095;28;20041;-70
2022/08/04 03:49:08;;;;;;;5.35;3.65;;;27.80;93.90;;;;;;5052320;28;20061;-76
2022/08/04 03:54:43;;;;;;;4.78;3.35;;;27.80;94.00;;;;;;5035735;28;20056;-70
2022/08/04 03:57:48;;;;;;;5.78;3.67;;;27.80;94.00;;;;;;5053254;28;20071;-70
2022/08/04 04:00:24;;;;;;;5.93;3.50;;;27.80;94.00;;;;;;5020291;28;20049;-70
2022/08/04 04:03:41;;;;;;;5.05;3.28;;;27.80;94.00;;;;;;5068051;28;20076;-70
2022/08/04 04:06:45;;;;;;;3.92;3.47;;;27.90;94.00;;;;;;5050215;28;20056;-70
2022/08/04 04:09:24;;;;;;;5.68;3.50;;;27.90;94.10;;;;;;5052894;28;20513;-70
2022/08/04 04:12:13;;;;;;;6.38;4.25;;;27.90;94.10;;;;;;5053077;28;20045;-78
2022/08/04 04:14:59;;;;;;;4.68;3.47;;;27.90;94.10;;;;;;5051643;28;20056;-70
2022/08/04 04:17:44;;;;;;;6.28;3.38;;;28.00;94.10;;;;;;5051746;28;20053;-70
2022/08/04 04:20:44;;;;;;;5.85;3.67;;;28.00;94.10;;;;;;5051528;28;20045;-71
2022/08/04 04:23:23;;;;;;;6.68;4.15;;;28.00;94.10;;;;;;5026734;28;20045;-70
2022/08/04 04:26:06;;;;;;;5.25;3.08;;;28.00;94.30;;;;;;5066573;28;20049;-69
2022/08/04 04:29:06;;;;;;;9.05;3.50;;;28.10;94.10;;;;;;5055929;28;20925;-70
2022/08/04 04:31:56;;;;;;;5.40;3.15;;;28.10;94.10;;;;;;5072903;28;20090;-70
2022/08/04 04:34:42;;;;;;;4.82;2.88;;;28.30;94.10;;;;;;5055150;28;20187;-70
2022/08/04 04:37:33;;;;;;;5.00;3.25;;;28.40;94.00;;;;;;5055259;28;20040;-73
2022/08/04 04:40:27;;;;;;;4.47;3.78;;;28.50;93.90;;;;;;5071830;28;20071;-70
2022/08/04 04:43:00;;;;;;;7.95;3.92;;;28.60;93.70;;;;;;5092567;28;20506;-71
2022/08/04 04:45:46;;;;;;;6.13;3.35;;;28.70;93.60;;;;;;5074734;28;20573;-71
2022/08/04 04:48:32;;;;;;;5.88;3.13;;;28.80;93.50;;;;;;5092468;28;20047;-70
2022/08/04 04:51:03;;;;;;;;;;;29.00;93.50;;;;;;5058288;28;20559;-70
2022/08/04 04:53:50;;;;;;;6.60;3.00;;;29.00;93.40;;;;;;5074414;28;19932;-71
2022/08/04 04:56:44;;;;;;;5.40;2.75;;;29.10;93.40;;;;;;5058000;28;20052;-70
2022/08/04 04:59:20;;;;;;;3.70;2.67;;;29.10;93.30;;;;;;5056575;28;20044;-71
2022/08/04 05:01:51;;;;;;;4.53;2.45;;;29.20;93.20;;;;;;5085678;28;20097;-71
2022/08/04 05:04:40;;;;;;;6.20;2.80;;;29.30;93.10;;;;;;5039943;28;20498;-71
2022/08/04 05:07:23;;;;;;;5.53;2.50;;;29.40;93.00;;;;;;5056670;28;20537;-73
2022/08/04 05:10:02;;;;;;;7.70;2.60;;;29.50;92.90;;;;;;5056761;28;20059;-72
2022/08/04 05:13:05;;;;;;;9.00;3.35;;;29.60;92.80;;;;;;5056920;28;20554;-71
2022/08/04 05:15:39;;;;;;;5.82;2.50;;;29.70;92.60;;;;;;5073101;28;20083;-72
2022/08/04 05:18:11;;;;;;;7.93;2.80;;;29.70;92.50;;;;;;5073061;28;20101;-71
2022/08/04 05:20:44;;;;;;;5.75;2.30;;;29.80;92.30;;;;;;5073893;28;20074;-71
2022/08/04 05:23:15;;;;;;;5.53;2.50;;;29.80;92.20;;;;;;5074053;28;20036;-71
2022/08/04 05:25:45;;;;;;;5.25;2.45;;;29.90;92.10;;;;;;5053392;28;20372;-71
2022/08/04 05:28:23;;;;;;;4.43;2.58;;;30.00;92.20;;;;;;5070158;28;20477;-72
2022/08/04 05:30:59;;;;;;;5.00;2.35;;;29.90;91.80;;;;;;5070417;28;20040;-71
2022/08/04 05:33:51;;;;;;;5.18;2.58;;;30.00;91.80;;;;;;5070332;28;20059;-72
2022/08/04 05:36:21;;;;;;;5.18;2.28;;;30.10;91.70;;;;;;5037320;28;20111;-71
2022/08/04 05:39:00;;;;;;;4.15;2.67;;;30.20;91.60;;;;;;5070101;28;20048;-71
2022/08/04 05:41:32;;;;;;;4.20;2.85;;;30.30;91.50;;;;;;5071546;28;20109;-72
2022/08/04 05:44:02;;;;;;;5.60;2.92;;;30.30;91.30;;;;;;5053328;28;20509;-72
2022/08/04 05:46:30;;;;;;;4.90;2.45;;;30.50;91.30;;;;;;5070073;28;20041;-70
2022/08/04 05:48:58;;;;;;;3.75;2.50;;;30.60;91.20;;;;;;5069936;28;20074;-72
2022/08/04 05:51:29;;;;;;;5.60;2.67;;;30.60;90.90;;;;;;5070067;28;20487;-71
2022/08/04 05:53:58;;;;;;;7.40;2.72;;;30.60;90.90;;;;;;5053121;28;20075;-73
2022/08/04 05:56:27;;;;;;;4.35;2.47;;;30.70;90.80;;;;;;5053459;28;20571;-72
2022/08/04 05:58:56;;;;;;;7.97;3.22;;;30.90;90.70;;;;;;5069700;28;20553;-71
2022/08/04 06:01:25;;;;;;;7.05;2.95;;;31.00;90.60;;;;;;5069775;28;20665;-73
2022/08/04 06:03:54;;;;;;;5.18;2.47;;;31.10;90.50;;;;;;5070488;28;20047;-72
2022/08/04 06:06:22;;;;;;;3.47;2.45;;;31.20;90.30;;;;;;5069684;28;20510;-71
2022/08/04 06:08:50;;;;;;;7.35;2.70;;;31.30;89.90;;;;;;5070892;28;20044;-72
2022/08/04 06:11:19;;;;;;;10.85;2.83;;;31.40;89.90;;;;;;5069887;28;20102;-71
2022/08/04 06:13:54;;;;;;;3.80;2.25;;;31.50;89.90;;;;;;5069872;28;20044;-72
2022/08/04 06:16:23;;;;;;;;;;;31.50;89.60;;;;;;5053534;28;20171;-72
2022/08/04 06:18:53;;;;;;;4.57;3.20;;;31.60;89.40;;;;;;5069644;28;20026;-71
2022/08/04 06:21:23;;;;;;;2.88;2.15;;;31.80;89.30;;;;;;5053161;28;20052;-71
2022/08/04 06:23:54;;;;;;;4.57;2.63;;;31.90;89.10;;;;;;5053228;28;20190;-71
2022/08/04 06:26:25;;;;;;;4.70;2.92;;;32.00;88.70;;;;;;5069506;28;20049;-71
2022/08/04 06:28:53;;;;;;;4.25;2.30;;;32.10;88.60;;;;;;5053048;28;20063;-71
2022/08/04 06:34:11;;;;;;;6.20;3.30;;;32.20;88.00;;;;;;5068945;28;20048;-71
2022/08/04 06:36:41;;;;;;;7.65;2.78;;;32.20;88.40;;;;;;5069687;28;20040;-73
2022/08/04 06:39:10;;;;;;;4.80;2.70;;;32.30;88.50;;;;;;5053122;28;20163;-71
2022/08/04 06:41:39;;;;;;;6.10;2.50;;;32.40;87.40;;;;;;5052883;28;20048;-72
2022/08/04 06:44:09;;;;;;;6.75;3.00;;;32.40;86.80;;;;;;5052335;28;20087;-72
2022/08/04 06:46:40;;;;;;;4.05;2.60;;;32.50;86.50;;;;;;5052304;28;20510;-73
2022/08/04 06:49:08;;;;;;;4.72;2.50;;;32.50;86.80;;;;;;5052585;28;20054;-72
2022/08/04 06:51:37;;;;;;;3.80;2.50;;;32.60;87.30;;;;;;5070799;28;20040;-71
2022/08/04 06:54:07;;;;;;;8.07;3.13;;;32.60;86.90;;;;;;5069496;28;20060;-71
2022/08/04 06:56:38;;;;;;;6.50;2.85;;;32.90;87.20;;;;;;5052897;28;20045;-70
2022/08/04 06:59:06;;;;;;;7.50;2.70;;;33.00;86.90;;;;;;5070444;28;20128;-72
2022/08/04 07:01:36;;;;;;;6.13;2.75;;;33.10;86.70;;;;;;5069223;28;20045;-71
2022/08/04 07:04:04;;;;;;;5.18;2.75;;;33.20;86.20;;;;;;5069860;28;20044;-71
2022/08/04 07:06:32;;;;;;;4.65;2.70;;;33.20;85.70;;;;;;5052539;28;20522;-73
2022/08/04 07:09:04;;;;;;;5.68;2.97;;;33.20;86.10;;;;;;5069283;28;20044;-72
2022/08/04 07:11:33;;;;;;;6.90;3.40;;;33.40;86.30;;;;;;5069054;28;20503;-72
2022/08/04 07:14:03;;;;;;;4.80;2.50;;;33.40;85.40;;;;;;5053093;28;20848;-71
2022/08/04 07:16:32;;;;;;;6.88;3.10;;;33.40;85.90;;;;;;5073009;28;20059;-71
2022/08/04 07:19:00;;;;;;;6.30;3.10;;;33.60;86.30;;;;;;5074132;28;20089;-71
2022/08/04 07:21:28;;;;;;;6.07;2.88;;;33.70;85.50;;;;;;5072694;28;20056;-71
2022/08/04 07:23:55;;;;;;;6.25;3.30;;;33.70;84.20;;;;;;5072407;28;20798;-73
2022/08/04 07:26:27;;;;;;;7.32;2.90;;;33.80;83.90;;;;;;5072469;28;20052;-71
2022/08/04 07:28:55;;;;;;;5.78;3.05;;;33.80;84.80;;;;;;5072553;28;20052;-75
2022/08/04 07:31:24;;;;;;;6.45;3.42;;;33.90;84.90;;;;;;5073775;28;20504;-71
2022/08/04 07:33:52;;;;;;;7.05;3.60;;;34.00;84.10;;;;;;5072593;28;20044;-71
2022/08/04 07:36:20;;;;;;;6.88;3.10;;;34.00;83.90;;;;;;5072541;28;20040;-71
2022/08/04 07:38:47;;;;;;;8.48;2.85;;;34.10;84.00;;;;;;5072351;28;20742;-76
2022/08/04 07:41:20;;;;;;;8.65;3.22;;;34.20;84.40;;;;;;5073652;28;20506;-71
2022/08/04 07:44:05;;;;;;;4.47;3.00;;;34.20;83.80;;;;;;5073718;28;20044;-71
2022/08/04 07:46:33;;;;;;;5.60;2.85;;;34.20;84.30;;;;;;5072279;28;20098;-72
2022/08/04 07:49:02;;;;;;;4.80;3.05;;;34.20;84.70;;;;;;5072277;28;20078;-71
2022/08/04 07:51:30;;;;;;;6.43;2.75;;;34.20;84.70;;;;;;5055419;28;20060;-72
2022/08/04 07:53:59;;;;;;;4.90;2.67;;;34.10;84.40;;;;;;5071922;28;20505;-72
2022/08/04 07:56:27;;;;;;;5.72;3.08;;;34.00;84.30;;;;;;5073659;28;20040;-71
2022/08/04 07:58:55;;;;;;;6.20;3.35;;;34.10;84.70;;;;;;5072155;28;20072;-72
2022/08/04 08:01:23;;;;;;;8.77;3.45;;;34.10;84.30;;;;;;5071984;28;20479;-72
2022/08/04 08:03:54;;;;;;;9.32;3.95;;;34.00;82.50;;;;;;5055715;28;20155;-73
2022/08/04 08:06:22;;;;;;;5.90;2.65;;;34.10;82.60;;;;;;5072073;28;20494;-74
2022/08/04 08:08:50;;;;;;;4.60;3.58;;;34.20;83.80;;;;;;5072042;28;20433;-72
2022/08/04 08:11:18;;;;;;;6.70;3.28;;;34.20;84.20;;;;;;5072095;28;20033;-73
2022/08/04 08:13:46;;;;;;;5.57;3.55;;;34.40;84.30;;;;;;5071727;28;20072;-72
2022/08/04 08:16:14;;;;;;;6.82;3.35;;;34.30;84.30;;;;;;5071562;28;20048;-74
2022/08/04 08:18:42;;;;;;;11.15;4.72;;;34.40;84.40;;;;;;5055096;28;20053;-71
2022/08/04 08:21:13;;;;;;;6.20;3.40;;;34.30;82.20;;;;;;5039039;28;20051;-71
2022/08/04 08:23:40;;;;;;;7.68;3.65;;;34.40;81.80;;;;;;5072024;28;20051;-71
2022/08/04 08:26:08;;;;;;;4.57;3.53;;;34.30;81.00;;;;;;5088640;28;20604;-71
2022/08/04 08:28:36;;;;;;;4.72;3.63;;;34.40;81.90;;;;;;5074931;28;20094;-74
2022/08/04 08:31:03;;;;;;;5.85;3.45;;;34.40;82.10;;;;;;5075175;28;20444;-71
2022/08/04 08:33:31;;;;;;;4.38;3.20;;;34.30;81.20;;;;;;5092582;28;20044;-71
2022/08/04 08:36:08;;;;;;;6.50;3.70;;;34.20;80.80;;;;;;5092510;28;20127;-71
2022/08/04 08:38:36;;;;;;;7.22;3.67;;;34.20;81.20;;;;;;5058305;28;20051;-72
2022/08/04 08:41:41;;;;;;;6.60;4.18;;;34.30;81.10;;;;;;5075099;28;20505;-72
2022/08/04 08:44:26;;;;;;;3.85;3.22;;;34.30;80.70;;;;;;5074329;28;20132;-74
2022/08/04 08:47:13;;;;;;;;;;;34.20;79.80;;;;;;5075091;28;20397;-71
2022/08/04 08:50:09;;;;;;;6.78;3.92;;;34.20;78.50;;;;;;5058206;28;19926;-72
2022/08/04 08:53:01;;;;;;;10.77;4.20;;;34.10;78.10;;;;;;5074737;28;20479;-72
2022/08/04 08:55:32;;;;;;;8.27;3.97;;;34.00;78.20;;;;;;5057812;28;20301;-72
2022/08/04 08:58:15;;;;;;;5.78;4.32;;;34.00;77.90;;;;;;5057827;28;20410;-73
2022/08/04 09:01:11;;;;;;;5.32;3.88;;;34.10;77.90;;;;;;5074183;28;20122;-71
2022/08/04 09:04:07;;;;;;;4.65;3.65;;;34.10;77.60;;;;;;5074369;28;20040;-71
2022/08/04 09:06:41;;;;;;;6.32;4.00;;;34.20;77.90;;;;;;5049339;28;20158;-71
2022/08/04 09:09:28;;;;;;;6.07;3.63;;;34.40;77.20;;;;;;5057653;28;20055;-72
2022/08/04 09:12:13;;;;;;;6.43;4.10;;;34.50;76.30;;;;;;5016378;28;20060;-72
2022/08/04 09:14:59;;;;;;;5.25;4.18;;;34.60;75.50;;;;;;5047038;28;20106;-71
2022/08/04 09:17:28;;;;;;;6.25;4.28;;;34.70;75.50;;;;;;5070275;28;20136;-71
2022/08/04 09:20:12;;;;;;;7.32;3.78;;;34.70;75.60;;;;;;5052492;28;20059;-71
2022/08/04 09:22:58;;;;;;;4.07;3.60;;;34.90;76.30;;;;;;5053883;28;20144;-72
2022/08/04 09:25:33;;;;;;;6.93;3.65;;;34.80;75.50;;;;;;5071322;28;20147;-72
2022/08/04 09:28:18;;;;;;;5.07;3.17;;;34.80;76.30;;;;;;5036988;28;20199;-71
2022/08/04 09:31:05;;;;;;;4.55;3.40;;;34.90;75.90;;;;;;5071627;28;20044;-71
2022/08/04 09:33:36;;;;;;;4.65;3.20;;;34.90;75.70;;;;;;5051932;28;20040;-72
2022/08/04 09:36:22;;;;;;;5.47;3.35;;;34.90;76.50;;;;;;5051550;28;20045;-71
2022/08/04 09:39:34;;;;;;;5.30;4.18;;;34.80;76.80;;;;;;5069559;28;20049;-71
2022/08/04 09:42:19;;;;;;;3.80;3.00;;;34.50;76.60;;;;;;5049837;28;20055;-71
2022/08/04 09:44:51;;;;;;;4.35;3.10;;;34.60;75.70;;;;;;5052628;28;20049;-75
2022/08/04 09:47:30;;;;;;;4.00;3.35;;;34.50;75.40;;;;;;5037017;28;20773;-71
2022/08/04 09:50:04;;;;;;;4.05;3.03;;;34.70;75.70;;;;;;5053207;28;20128;-73
2022/08/04 09:52:46;;;;;;;3.95;3.50;;;34.80;75.90;;;;;;5020634;28;20502;-72
2022/08/04 09:55:27;;;;;;;4.38;3.20;;;35.00;75.20;;;;;;5053399;28;20056;-72
2022/08/04 09:58:04;;;;;;;6.82;3.58;;;35.00;74.40;;;;;;5036717;28;20045;-71
2022/08/04 10:01:00;;;;;;;4.20;3.30;;;35.10;73.70;;;;;;5053479;28;20047;-71
2022/08/04 10:03:34;;;;;;;5.88;3.40;;;35.00;73.30;;;;;;5053411;28;20487;-71
2022/08/04 10:06:27;;;;;;;5.37;3.70;;;34.90;73.00;;;;;;5053210;28;20040;-71
2022/08/04 10:09:21;;;;;;;4.15;3.03;;;34.80;72.70;;;;;;5036616;28;20098;-72
2022/08/04 10:12:16;;;;;;;3.47;2.88;;;34.80;73.10;;;;;;5070834;28;20520;-77
2022/08/04 10:14:56;;;;;;;3.63;3.15;;;34.90;72.50;;;;;;5052835;28;20086;-72
2022/08/04 10:17:33;;;;;;;4.05;3.38;;;34.90;71.80;;;;;;5036473;28;20047;-72
2022/08/04 10:20:13;;;;;;;4.70;3.03;;;34.80;71.70;;;;;;5036331;28;20036;-72
2022/08/04 10:22:46;;;;;;;5.70;3.45;;;34.60;72.10;;;;;;5070747;28;20502;-71
2022/08/04 10:25:59;;;;;;;4.43;3.17;;;34.60;71.20;;;;;;5052782;28;20814;-71
2022/08/04 10:28:30;;;;;;;4.45;2.88;;;34.60;69.90;;;;;;5054095;28;20036;-72
2022/08/04 10:31:02;;;;;;;7.10;3.10;;;34.70;70.50;;;;;;5069707;28;20050;-71
2022/08/04 10:33:50;;;;;;;3.83;2.80;;;34.80;69.70;;;;;;5068593;28;20065;-72
2022/08/04 10:36:22;;;;;;;8.00;2.83;;;34.70;68.90;;;;;;5062434;28;20048;-72
2022/08/04 10:39:11;;;;;;;4.35;2.95;;;34.80;69.80;;;;;;5045275;28;20556;-72
2022/08/04 10:42:11;;;;;;;4.95;2.50;;;34.80;70.40;;;;;;5081288;28;20051;-73
2022/08/04 10:45:06;;;;;;;7.20;2.80;;;34.70;67.80;;;;;;5040133;28;20516;-71
2022/08/04 10:47:40;;;;;;;;;;;34.60;69.10;;;;;;5088423;28;20036;-71
2022/08/04 10:50:11;;;;;;;3.20;2.50;;;34.50;69.70;;;;;;5059201;28;20335;-72
2022/08/04 10:52:47;;;;;;;4.47;2.83;;;34.50;69.60;;;;;;5056441;28;20055;-71
2022/08/04 10:55:44;;;;;;;7.57;2.85;;;34.50;71.10;;;;;;5072633;28;20048;-70
2022/08/04 10:58:18;;;;;;;3.47;2.80;;;34.60;71.60;;;;;;5089453;28;20048;-71
2022/08/04 11:00:48;;;;;;;3.85;2.17;;;34.70;69.20;;;;;;5074462;28;20606;-71
2022/08/04 11:03:55;;;;;;;4.88;2.67;;;34.50;70.20;;;;;;5068502;28;20040;-71
2022/08/04 11:06:24;;;;;;;4.18;2.70;;;34.60;71.20;;;;;;4987229;28;20058;-71
2022/08/04 11:08:54;;;;;;;3.83;2.83;;;34.60;71.10;;;;;;5035961;28;20123;-71
2022/08/04 11:11:24;;;;;;;6.30;2.78;;;34.50;71.30;;;;;;5071443;28;20122;-72
2022/08/04 11:14:03;;;;;;;3.28;2.47;;;34.50;71.50;;;;;;5073242;28;20076;-71
2022/08/04 11:16:52;;;;;;;4.03;2.78;;;34.40;72.50;;;;;;5047616;28;20044;-72
2022/08/04 11:19:31;;;;;;;3.22;2.70;;;34.50;72.90;;;;;;5072020;28;20435;-71
2022/08/04 11:22:05;;;;;;;3.55;2.70;;;34.50;73.30;;;;;;5072736;28;20058;-73
2022/08/04 11:24:38;;;;;;;4.18;2.50;;;34.50;73.40;;;;;;5054802;28;20048;-74
2022/08/04 11:27:13;;;;;;;4.20;2.80;;;34.50;73.40;;;;;;5063881;28;20094;-72
2022/08/04 11:30:03;;;;;;;4.55;2.88;;;34.50;73.00;;;;;;5065338;28;20090;-72
2022/08/04 11:32:37;;;;;;;4.05;2.50;;;34.40;72.80;;;;;;5084419;28;20044;-71
2022/08/04 11:35:08;;;;;;;4.32;2.35;;;34.40;72.80;;;;;;5083640;28;20076;-73
2022/08/04 11:37:49;;;;;;;4.22;2.60;;;34.50;72.00;;;;;;5067251;28;20039;-73
2022/08/04 11:40:28;;;;;;;4.43;2.50;;;34.50;72.60;;;;;;5047603;28;20546;-72
2022/08/04 11:43:07;;;;;;;4.28;2.70;;;34.60;71.80;;;;;;5082675;28;20075;-74
2022/08/04 11:45:40;;;;;;;5.50;2.78;;;34.50;72.00;;;;;;5086269;28;20048;-73
2022/08/04 11:48:35;;;;;;;3.88;2.53;;;34.40;72.40;;;;;;5066373;28;20131;-72
2022/08/04 11:51:05;;;;;;;4.47;2.50;;;34.40;73.00;;;;;;5061529;28;20049;-71
2022/08/04 11:53:37;;;;;;;4.85;2.53;;;34.40;72.50;;;;;;5087875;28;20048;-73
2022/08/04 11:56:09;;;;;;;6.13;2.40;;;34.40;70.90;;;;;;5044557;28;20123;-72
2022/08/04 11:58:37;;;;;;;5.18;3.03;;;34.40;72.10;;;;;;5087652;28;20036;-72
2022/08/04 12:01:11;;;;;;;3.40;2.70;;;34.50;71.70;;;;;;5069232;28;20047;-73
2022/08/04 12:04:06;;;;;;;3.88;2.53;;;34.50;70.70;;;;;;5063916;28;20500;-72
2022/08/04 12:07:09;;;;;;;4.97;2.95;;;34.40;70.80;;;;;;5042495;28;20036;-71
2022/08/04 12:10:08;;;;;;;5.50;2.38;;;34.40;69.90;;;;;;5071426;28;20043;-71
2022/08/04 12:12:57;;;;;;;3.60;2.85;;;34.30;69.30;;;;;;5056087;28;20137;-71
2022/08/04 12:16:06;;;;;;;3.30;2.45;;;34.30;70.00;;;;;;5084751;28;20450;-74
2022/08/04 12:19:02;;;;;;;5.85;2.58;;;34.40;70.40;;;;;;5055669;28;20071;-71
2022/08/04 12:21:44;;;;;;;3.30;2.35;;;34.20;70.30;;;;;;5048306;28;20044;-77
2022/08/04 12:24:17;;;;;;;4.40;2.53;;;34.20;69.50;;;;;;5065428;28;20048;-72
2022/08/04 12:26:58;;;;;;;5.47;2.25;;;34.10;69.20;;;;;;5047185;28;20059;-72
2022/08/04 12:29:32;;;;;;;3.67;2.45;;;34.10;69.90;;;;;;5055622;28;20536;-71
2022/08/04 12:32:10;;;;;;;3.10;2.10;;;34.00;70.00;;;;;;5063815;28;20048;-72
2022/08/04 12:34:45;;;;;;;5.00;2.78;;;34.00;69.30;;;;;;5083957;28;20062;-72
2022/08/04 12:37:35;;;;;;;3.80;2.38;;;33.90;70.50;;;;;;5082559;28;20068;-73
2022/08/04 12:40:22;;;;;;;6.05;2.67;;;33.90;70.40;;;;;;5090230;28;20498;-71
2022/08/04 12:42:53;;;;;;;4.15;2.20;;;34.00;70.50;;;;;;5081005;28;20058;-71
2022/08/04 12:45:22;;;;;;;5.63;2.83;;;33.90;69.60;;;;;;5054642;28;20040;-71
2022/08/04 12:47:53;;;;;;;3.97;2.50;;;34.00;70.60;;;;;;5077992;28;20040;-72
2022/08/04 12:50:22;;;;;;;3.30;2.17;;;34.00;69.80;;;;;;5087338;28;20147;-72
2022/08/04 12:52:56;;;;;;;3.72;2.70;;;34.00;69.70;;;;;;5082656;28;20120;-72
2022/08/04 12:55:30;;;;;;;3.88;2.75;;;34.00;68.60;;;;;;5091669;28;20052;-74
2022/08/04 12:58:01;;;;;;;4.75;2.30;;;34.00;68.00;;;;;;5055764;28;20040;-73
2022/08/04 13:00:34;;;;;;;4.50;2.92;;;34.00;68.30;;;;;;5074760;28;20052;-72
2022/08/04 13:03:12;;;;;;;4.80;2.50;;;34.00;67.90;;;;;;5073372;28;20040;-71
2022/08/04 13:05:41;;;;;;;4.45;2.53;;;34.00;69.00;;;;;;5071618;28;20114;-72
2022/08/04 13:08:14;;;;;;;3.63;2.65;;;33.90;68.20;;;;;;5071590;28;20051;-71
2022/08/04 13:10:46;;;;;;;2.55;2.28;;;34.00;69.10;;;;;;5090049;28;20552;-71
2022/08/04 13:13:26;;;;;;;3.47;2.42;;;34.00;69.60;;;;;;5068394;28;20089;-71
2022/08/04 13:16:03;;;;;;;4.20;2.40;;;34.00;70.10;;;;;;5070879;28;20048;-74
2022/08/04 13:18:39;;;;;;;4.13;2.28;;;34.00;69.70;;;;;;5084601;28;20498;-77
2022/08/04 13:21:13;;;;;;;5.25;2.35;;;33.90;68.80;;;;;;5065165;28;20490;-71
2022/08/04 13:23:45;;;;;;;3.88;2.33;;;34.00;68.90;;;;;;5067479;28;20048;-72
2022/08/04 13:26:17;;;;;;;3.75;2.20;;;34.00;68.90;;;;;;5053386;28;20061;-71
2022/08/04 13:28:47;;;;;;;3.60;2.60;;;34.00;68.70;;;;;;5072658;28;20089;-71
2022/08/04 13:31:19;;;;;;;4.85;2.67;;;34.00;67.60;;;;;;5056965;28;20441;-72
2022/08/04 13:33:52;;;;;;;4.07;2.33;;;34.00;67.10;;;;;;5069121;28;20040;-73
2022/08/04 13:36:25;;;;;;;3.95;2.80;;;33.90;66.70;;;;;;5039443;28;20147;-71
2022/08/04 13:38:56;;;;;;;4.18;2.42;;;33.90;68.00;;;;;;5069785;28;20048;-72
2022/08/04 13:41:27;;;;;;;3.33;2.50;;;34.00;68.20;;;;;;5091409;28;20063;-72
2022/08/04 13:44:00;;;;;;;3.80;2.28;;;33.90;67.70;;;;;;5090883;28;20132;-72
2022/08/04 13:46:32;;;;;;;3.55;1.80;;;33.90;65.90;;;;;;5055236;28;20055;-72
2022/08/04 13:49:06;;;;;;;2.83;2.00;;;33.80;64.80;;;;;;5069511;28;20036;-71
2022/08/04 13:51:56;;;;;;;4.25;2.17;;;33.80;65.90;;;;;;5061593;28;20040;-73